createdAt,value
2022-09-28T00:00:46.090Z,1.90
2022-09-28T00:01:46.620Z,1.90
2022-09-28T00:02:46.972Z,1.90
2022-09-28T00:03:47.357Z,1.93
2022-09-28T00:04:47.786Z,1.94
2022-09-28T00:05:48.239Z,1.93
2022-09-28T00:06:48.647Z,1.90
2022-09-28T00:07:49.076Z,1.91
2022-09-28T00:08:49.505Z,1.94
2022-09-28T00:09:49.936Z,1.91
2022-09-28T00:10:50.389Z,1.92
2022-09-28T00:11:50.804Z,1.92
2022-09-28T00:12:51.227Z,1.90
2022-09-28T00:13:51.661Z,1.87
2022-09-28T00:14:52.091Z,1.83
2022-09-28T00:15:52.537Z,1.79
2022-09-28T00:16:53.036Z,1.80
2022-09-28T00:17:53.381Z,1.80
2022-09-28T00:18:53.809Z,1.79
2022-09-28T00:19:54.243Z,1.80
2022-09-28T00:20:54.693Z,1.80
2022-09-28T00:21:55.101Z,1.81
2022-09-28T00:22:55.531Z,1.81
2022-09-28T00:23:55.962Z,1.88
2022-09-28T00:24:56.390Z,1.94
2022-09-28T00:25:56.861Z,1.93
2022-09-28T00:26:57.257Z,1.92
2022-09-28T00:27:57.681Z,1.90
2022-09-28T00:28:58.118Z,1.88
2022-09-28T00:29:58.545Z,1.88
2022-09-28T00:30:58.997Z,1.86
2022-09-28T00:31:59.512Z,1.87
2022-09-28T00:32:59.837Z,1.88
2022-09-28T00:34:00.276Z,1.84
2022-09-28T00:35:00.699Z,1.84
2022-09-28T00:36:01.354Z,1.83
2022-09-28T00:37:01.556Z,1.82
2022-09-28T00:38:01.991Z,1.84
2022-09-28T00:39:02.421Z,1.87
2022-09-28T00:40:02.858Z,1.89
2022-09-28T00:41:03.351Z,1.90
2022-09-28T00:42:03.720Z,1.89
2022-09-28T00:43:04.140Z,1.89
2022-09-28T00:44:04.572Z,1.87
2022-09-28T00:45:05.000Z,1.89
2022-09-28T00:46:05.514Z,1.89
2022-09-28T00:47:05.863Z,1.91
2022-09-28T00:48:06.297Z,1.92
2022-09-28T00:49:06.737Z,1.92
2022-09-28T00:50:07.163Z,1.92
2022-09-28T00:51:07.607Z,1.91
2022-09-28T00:52:08.017Z,1.90
2022-09-28T00:53:08.468Z,1.88
2022-09-28T00:54:08.884Z,1.90
2022-09-28T00:55:09.324Z,1.92
2022-09-28T00:56:09.760Z,1.95
2022-09-28T00:57:10.171Z,1.98
2022-09-28T00:58:10.600Z,2.01
2022-09-28T00:59:11.031Z,2.05
2022-09-28T01:00:11.460Z,2.10
2022-09-28T01:01:12.038Z,2.12
2022-09-28T01:02:12.369Z,2.19
2022-09-28T01:03:12.752Z,2.27
2022-09-28T01:04:13.190Z,2.22
2022-09-28T01:05:13.617Z,2.20
2022-09-28T01:06:14.067Z,2.21
2022-09-28T01:07:14.474Z,2.19
2022-09-28T01:08:14.904Z,2.15
2022-09-28T01:09:15.443Z,2.14
2022-09-28T01:10:15.810Z,2.15
2022-09-28T01:11:16.214Z,2.14
2022-09-28T01:12:16.625Z,2.15
2022-09-28T01:13:17.061Z,2.13
2022-09-28T01:14:17.487Z,2.10
2022-09-28T01:15:17.938Z,2.10
2022-09-28T01:16:18.425Z,2.13
2022-09-28T01:17:18.779Z,2.08
2022-09-28T01:18:19.207Z,2.14
2022-09-28T01:19:19.637Z,2.15
2022-09-28T01:20:20.069Z,2.17
2022-09-28T01:21:20.527Z,2.17
2022-09-28T01:22:20.932Z,2.18
2022-09-28T01:23:21.356Z,2.17
2022-09-28T01:24:21.789Z,2.22
2022-09-28T01:25:22.273Z,2.24
2022-09-28T01:26:22.674Z,2.24
2022-09-28T01:27:23.078Z,2.24
2022-09-28T01:28:23.512Z,2.21
2022-09-28T01:29:23.940Z,2.19
2022-09-28T01:30:24.371Z,2.18
2022-09-28T01:31:24.861Z,2.15
2022-09-28T01:32:25.230Z,2.11
2022-09-28T01:33:25.663Z,2.18
2022-09-28T01:34:26.092Z,2.17
2022-09-28T01:35:26.520Z,2.16
2022-09-28T01:36:26.972Z,2.14
2022-09-28T01:37:27.382Z,2.14
2022-09-28T01:38:27.823Z,2.15
2022-09-28T01:39:28.251Z,2.16
2022-09-28T01:40:28.724Z,2.12
2022-09-28T01:41:29.123Z,2.12
2022-09-28T01:42:29.542Z,2.12
2022-09-28T01:43:29.966Z,2.13
2022-09-28T01:44:30.395Z,2.14
2022-09-28T01:45:30.835Z,2.16
2022-09-28T01:46:31.280Z,2.15
2022-09-28T01:47:31.689Z,2.13
2022-09-28T01:48:32.118Z,2.15
2022-09-28T01:49:32.545Z,2.10
2022-09-28T01:50:32.976Z,2.08
2022-09-28T01:51:33.446Z,2.06
2022-09-28T01:52:33.837Z,2.04
2022-09-28T01:53:34.274Z,2.06
2022-09-28T01:54:34.712Z,2.08
2022-09-28T01:55:35.130Z,2.03
2022-09-28T01:56:35.589Z,2.05
2022-09-28T01:57:35.992Z,2.08
2022-09-28T01:58:36.452Z,2.15
2022-09-28T01:59:36.849Z,2.18
2022-09-28T02:00:37.318Z,2.16
2022-09-28T02:01:37.904Z,2.18
2022-09-28T02:02:38.143Z,2.23
2022-09-28T02:03:38.586Z,2.20
2022-09-28T02:04:39.002Z,2.21
2022-09-28T02:05:39.430Z,2.19
2022-09-28T02:06:39.886Z,2.20
2022-09-28T02:07:40.291Z,2.22
2022-09-28T02:08:40.723Z,2.20
2022-09-28T02:09:41.152Z,2.20
2022-09-28T02:10:41.587Z,2.13
2022-09-28T02:11:42.036Z,2.06
2022-09-28T02:12:42.444Z,2.05
2022-09-28T02:13:42.878Z,2.07
2022-09-28T02:14:43.305Z,2.09
2022-09-28T02:15:43.738Z,2.10
2022-09-28T02:16:44.225Z,2.08
2022-09-28T02:17:44.596Z,2.05
2022-09-28T02:18:45.036Z,2.05
2022-09-28T02:19:45.455Z,2.02
2022-09-28T02:20:45.888Z,2.00
2022-09-28T02:21:46.343Z,1.96
2022-09-28T02:22:46.746Z,1.96
2022-09-28T02:23:47.184Z,1.98
2022-09-28T02:24:47.606Z,1.98
2022-09-28T02:25:48.039Z,1.98
2022-09-28T02:26:48.489Z,1.98
2022-09-28T02:27:48.909Z,1.97
2022-09-28T02:28:49.330Z,1.92
2022-09-28T02:29:49.764Z,1.90
2022-09-28T02:30:50.194Z,1.88
2022-09-28T02:31:50.668Z,1.87
2022-09-28T02:32:51.051Z,1.82
2022-09-28T02:33:51.480Z,1.83
2022-09-28T02:34:51.912Z,1.81
2022-09-28T02:35:52.351Z,1.79
2022-09-28T02:36:52.793Z,1.76
2022-09-28T02:37:53.206Z,1.76
2022-09-28T02:38:53.636Z,1.78
2022-09-28T02:39:54.064Z,1.78
2022-09-28T02:40:54.554Z,1.78
2022-09-28T02:41:54.952Z,1.74
2022-09-28T02:42:55.366Z,1.70
2022-09-28T02:43:55.785Z,1.71
2022-09-28T02:44:56.227Z,1.77
2022-09-28T02:45:56.715Z,1.75
2022-09-28T02:46:57.104Z,1.72
2022-09-28T02:47:57.508Z,1.71
2022-09-28T02:49:17.417Z,1.71
2022-09-28T02:49:58.364Z,1.74
2022-09-28T02:50:58.796Z,1.74
2022-09-28T02:51:59.249Z,1.76
2022-09-28T02:52:59.658Z,1.75
2022-09-28T02:54:00.111Z,1.71
2022-09-28T02:55:00.541Z,1.70
2022-09-28T02:56:00.948Z,1.71
2022-09-28T02:57:01.391Z,1.71
2022-09-28T02:58:01.808Z,1.73
2022-09-28T02:59:02.235Z,1.76
2022-09-28T03:00:02.671Z,1.75
2022-09-28T03:01:03.164Z,1.73
2022-09-28T03:02:03.593Z,1.73
2022-09-28T03:03:03.967Z,1.74
2022-09-28T03:04:04.390Z,1.76
2022-09-28T03:05:04.822Z,1.71
2022-09-28T03:06:05.254Z,1.71
2022-09-28T03:07:05.702Z,1.68
2022-09-28T03:08:06.113Z,1.63
2022-09-28T03:09:06.539Z,1.62
2022-09-28T03:10:06.972Z,1.63
2022-09-28T03:11:07.400Z,1.66
2022-09-28T03:12:07.848Z,1.65
2022-09-28T03:13:08.258Z,1.63
2022-09-28T03:14:08.689Z,1.61
2022-09-28T03:15:09.120Z,1.56
2022-09-28T03:16:09.638Z,1.56
2022-09-28T03:17:09.998Z,1.56
2022-09-28T03:18:10.413Z,1.56
2022-09-28T03:19:10.840Z,1.55
2022-09-28T03:20:11.288Z,1.57
2022-09-28T03:21:11.697Z,1.58
2022-09-28T03:22:12.158Z,1.57
2022-09-28T03:23:24.227Z,1.60
2022-09-28T03:24:12.990Z,1.61
2022-09-28T03:25:13.417Z,1.60
2022-09-28T03:26:13.852Z,1.61
2022-09-28T03:27:14.302Z,1.61
2022-09-28T03:28:14.710Z,1.56
2022-09-28T03:29:15.321Z,1.56
2022-09-28T03:30:15.567Z,1.54
2022-09-28T03:31:16.045Z,1.53
2022-09-28T03:32:16.448Z,1.54
2022-09-28T03:33:16.855Z,1.53
2022-09-28T03:34:17.286Z,1.50
2022-09-28T03:35:17.725Z,1.52
2022-09-28T03:36:18.159Z,1.55
2022-09-28T03:37:18.593Z,1.63
2022-09-28T03:38:19.009Z,1.66
2022-09-28T03:39:19.436Z,1.65
2022-09-28T03:40:19.883Z,1.65
2022-09-28T03:41:20.293Z,1.68
2022-09-28T03:42:20.749Z,1.72
2022-09-28T03:43:21.172Z,1.76
2022-09-28T03:44:21.583Z,1.80
2022-09-28T03:45:22.010Z,1.78
2022-09-28T03:46:22.470Z,1.76
2022-09-28T03:47:22.894Z,1.78
2022-09-28T03:48:25.873Z,1.79
2022-09-28T03:49:23.729Z,1.79
2022-09-28T03:50:24.161Z,1.76
2022-09-28T03:51:24.591Z,1.74
2022-09-28T03:52:25.041Z,1.70
2022-09-28T03:53:25.448Z,1.69
2022-09-28T03:54:25.881Z,1.70
2022-09-28T03:55:26.308Z,1.72
2022-09-28T03:56:26.739Z,1.67
2022-09-28T03:57:27.185Z,1.67
2022-09-28T03:58:27.598Z,1.70
2022-09-28T03:59:28.026Z,1.73
2022-09-28T04:00:28.459Z,1.71
2022-09-28T04:01:28.943Z,1.76
2022-09-28T04:02:29.392Z,1.78
2022-09-28T04:03:29.749Z,1.84
2022-09-28T04:04:30.183Z,1.87
2022-09-28T04:05:30.606Z,1.90
2022-09-28T04:06:31.037Z,1.92
2022-09-28T04:07:31.498Z,1.91
2022-09-28T04:08:31.895Z,1.91
2022-09-28T04:09:32.322Z,1.90
2022-09-28T04:10:32.754Z,1.90
2022-09-28T04:11:42.974Z,1.90
2022-09-28T04:12:33.644Z,1.91
2022-09-28T04:13:34.040Z,1.94
2022-09-28T04:14:34.472Z,1.94
2022-09-28T04:15:34.901Z,1.94
2022-09-28T04:16:35.373Z,1.98
2022-09-28T04:17:39.927Z,1.99
2022-09-28T04:18:36.192Z,1.95
2022-09-28T04:19:36.620Z,1.93
2022-09-28T04:20:37.059Z,1.95
2022-09-28T04:21:37.482Z,1.94
2022-09-28T04:22:37.933Z,1.94
2022-09-28T04:23:38.337Z,1.93
2022-09-28T04:24:38.778Z,1.98
2022-09-28T04:25:39.209Z,2.05
2022-09-28T04:26:39.626Z,2.01
2022-09-28T04:27:40.080Z,1.97
2022-09-28T04:28:40.489Z,1.98
2022-09-28T04:29:40.928Z,1.97
2022-09-28T04:30:41.346Z,1.98
2022-09-28T04:31:41.843Z,1.96
2022-09-28T04:32:42.227Z,1.95
2022-09-28T04:33:42.647Z,1.93
2022-09-28T04:34:44.354Z,1.87
2022-09-28T04:35:43.494Z,1.87
2022-09-28T04:36:43.922Z,1.84
2022-09-28T04:37:44.382Z,1.85
2022-09-28T04:38:53.484Z,1.85
2022-09-28T04:39:48.385Z,1.85
2022-09-28T04:40:45.711Z,1.88
2022-09-28T04:41:46.097Z,1.84
2022-09-28T04:42:46.519Z,1.86
2022-09-28T04:43:46.936Z,1.87
2022-09-28T04:44:47.359Z,1.87
2022-09-28T04:45:47.805Z,1.92
2022-09-28T04:46:48.217Z,1.94
2022-09-28T04:47:48.676Z,1.93
2022-09-28T04:48:49.081Z,1.97
2022-09-28T04:49:49.503Z,2.00
2022-09-28T04:50:49.932Z,2.01
2022-09-28T04:51:50.374Z,1.98
2022-09-28T04:52:50.813Z,1.98
2022-09-28T04:53:51.222Z,1.90
2022-09-28T04:54:51.661Z,1.88
2022-09-28T04:55:52.086Z,1.86
2022-09-28T04:56:52.550Z,1.79
2022-09-28T04:57:52.961Z,1.81
2022-09-28T04:58:53.370Z,1.78
2022-09-28T04:59:53.800Z,1.74
2022-09-28T05:00:54.293Z,1.73
2022-09-28T05:01:54.686Z,1.70
2022-09-28T05:02:55.113Z,1.72
2022-09-28T05:03:55.519Z,1.72
2022-09-28T05:04:55.949Z,1.72
2022-09-28T05:05:56.376Z,1.74
2022-09-28T05:06:56.807Z,1.76
2022-09-28T05:07:57.256Z,1.73
2022-09-28T05:08:57.689Z,1.71
2022-09-28T05:09:58.128Z,1.74
2022-09-28T05:10:58.543Z,1.71
2022-09-28T05:11:58.955Z,1.69
2022-09-28T05:12:59.413Z,1.67
2022-09-28T05:13:59.813Z,1.63
2022-09-28T05:15:00.243Z,1.59
2022-09-28T05:16:04.965Z,1.55
2022-09-28T05:17:01.186Z,1.52
2022-09-28T05:18:01.558Z,1.54
2022-09-28T05:19:01.971Z,1.55
2022-09-28T05:20:02.394Z,1.53
2022-09-28T05:21:02.829Z,1.56
2022-09-28T05:22:03.265Z,1.57
2022-09-28T05:23:03.706Z,1.58
2022-09-28T05:24:04.126Z,1.54
2022-09-28T05:25:04.565Z,1.50
2022-09-28T05:26:04.974Z,1.49
2022-09-28T05:27:05.415Z,1.50
2022-09-28T05:28:05.859Z,1.53
2022-09-28T05:29:06.268Z,1.57
2022-09-28T05:30:06.699Z,1.57
2022-09-28T05:31:07.137Z,1.57
2022-09-28T05:32:07.602Z,1.59
2022-09-28T05:33:08.017Z,1.55
2022-09-28T05:34:08.417Z,1.54
2022-09-28T05:35:08.849Z,1.49
2022-09-28T05:36:09.282Z,1.48
2022-09-28T05:37:09.718Z,1.44
2022-09-28T05:38:10.158Z,1.43
2022-09-28T05:39:10.605Z,1.46
2022-09-28T05:40:11.004Z,1.45
2022-09-28T05:41:11.466Z,1.43
2022-09-28T05:42:11.871Z,1.40
2022-09-28T05:43:12.327Z,1.38
2022-09-28T05:44:12.723Z,1.38
2022-09-28T05:45:13.160Z,1.38
2022-09-28T05:46:13.654Z,1.36
2022-09-28T05:47:14.028Z,1.37
2022-09-28T05:48:14.468Z,1.36
2022-09-28T05:49:14.880Z,1.36
2022-09-28T05:50:15.314Z,1.36
2022-09-28T05:51:15.739Z,1.32
2022-09-28T05:52:16.170Z,1.33
2022-09-28T05:53:16.630Z,1.37
2022-09-28T05:54:17.178Z,1.36
2022-09-28T05:55:17.469Z,1.38
2022-09-28T05:56:17.899Z,1.39
2022-09-28T05:57:18.333Z,1.41
2022-09-28T05:58:18.778Z,1.40
2022-09-28T05:59:19.190Z,1.41
2022-09-28T06:00:19.625Z,1.46
2022-09-28T06:01:20.115Z,1.48
2022-09-28T06:02:20.539Z,1.52
2022-09-28T06:03:20.935Z,1.51
2022-09-28T06:04:21.345Z,1.54
2022-09-28T06:05:21.782Z,1.56
2022-09-28T06:06:22.212Z,1.60
2022-09-28T06:07:22.643Z,1.61
2022-09-28T06:08:23.089Z,1.59
2022-09-28T06:09:25.920Z,1.57
2022-09-28T06:10:23.931Z,1.56
2022-09-28T06:11:24.366Z,1.53
2022-09-28T06:12:24.796Z,1.53
2022-09-28T06:13:25.254Z,1.54
2022-09-28T06:14:25.660Z,1.51
2022-09-28T06:15:26.096Z,1.47
2022-09-28T06:16:26.585Z,1.50
2022-09-28T06:17:26.956Z,1.49
2022-09-28T06:18:27.404Z,1.47
2022-09-28T06:19:27.818Z,1.47
2022-09-28T06:20:28.314Z,1.51
2022-09-28T06:21:28.680Z,1.47
2022-09-28T06:22:29.109Z,1.43
2022-09-28T06:23:29.567Z,1.40
2022-09-28T06:24:29.976Z,1.39
2022-09-28T06:25:30.405Z,1.42
2022-09-28T06:26:30.839Z,1.47
2022-09-28T06:27:31.275Z,1.47
2022-09-28T06:28:31.723Z,1.42
2022-09-28T06:29:32.133Z,1.42
2022-09-28T06:30:32.634Z,1.42
2022-09-28T06:31:33.013Z,1.42
2022-09-28T06:32:33.430Z,1.40
2022-09-28T06:33:33.883Z,1.37
2022-09-28T06:34:34.290Z,1.37
2022-09-28T06:35:34.731Z,1.37
2022-09-28T06:36:35.156Z,1.39
2022-09-28T06:37:35.590Z,1.40
2022-09-28T06:38:36.037Z,1.38
2022-09-28T06:39:36.452Z,1.36
2022-09-28T06:40:36.954Z,1.35
2022-09-28T06:41:37.316Z,1.34
2022-09-28T06:42:37.748Z,1.34
2022-09-28T06:43:38.203Z,1.35
2022-09-28T06:44:38.612Z,1.34
2022-09-28T06:45:39.056Z,1.37
2022-09-28T06:46:39.503Z,1.36
2022-09-28T06:47:39.911Z,1.35
2022-09-28T06:48:40.376Z,1.33
2022-09-28T06:49:40.775Z,1.33
2022-09-28T06:50:41.214Z,1.33
2022-09-28T06:51:41.639Z,1.37
2022-09-28T06:52:42.069Z,1.40
2022-09-28T06:53:42.560Z,1.42
2022-09-28T06:54:42.948Z,1.42
2022-09-28T06:55:43.368Z,1.41
2022-09-28T06:56:43.803Z,1.39
2022-09-28T06:57:44.233Z,1.37
2022-09-28T06:58:44.703Z,1.36
2022-09-28T06:59:45.130Z,1.36
2022-09-28T07:00:45.572Z,1.36
2022-09-28T07:01:46.020Z,1.38
2022-09-28T07:02:46.442Z,1.41
2022-09-28T07:03:46.846Z,1.47
2022-09-28T07:04:47.266Z,1.51
2022-09-28T07:05:47.695Z,1.49
2022-09-28T07:06:48.127Z,1.48
2022-09-28T07:07:48.557Z,1.50
2022-09-28T07:08:59.575Z,1.50
2022-09-28T07:09:52.354Z,1.46
2022-09-28T07:10:49.855Z,1.44
2022-09-28T07:11:50.289Z,1.46
2022-09-28T07:12:50.717Z,1.47
2022-09-28T07:13:51.638Z,1.46
2022-09-28T07:14:51.767Z,1.45
2022-09-28T07:15:52.015Z,1.47
2022-09-28T07:17:11.141Z,1.49
2022-09-28T07:18:01.051Z,1.46
2022-09-28T07:18:53.339Z,1.41
2022-09-28T07:19:53.743Z,1.39
2022-09-28T07:20:54.797Z,1.38
2022-09-28T07:22:04.198Z,1.38
2022-09-28T07:22:55.149Z,1.40
2022-09-28T07:23:55.493Z,1.42
2022-09-28T07:24:55.907Z,1.46
2022-09-28T07:25:56.594Z,1.45
2022-09-28T07:26:56.770Z,1.46
2022-09-28T07:27:57.204Z,1.51
2022-09-28T07:28:57.659Z,1.55
2022-09-28T07:29:58.068Z,1.54
2022-09-28T07:30:58.548Z,1.58
2022-09-28T07:31:58.930Z,1.56
2022-09-28T07:32:59.363Z,1.55
2022-09-28T07:33:59.813Z,1.49
2022-09-28T07:35:00.227Z,1.45
2022-09-28T07:36:00.661Z,1.40
2022-09-28T07:37:01.095Z,1.36
2022-09-28T07:38:01.529Z,1.35
2022-09-28T07:39:01.980Z,1.36
2022-09-28T07:40:02.391Z,1.35
2022-09-28T07:41:02.862Z,1.37
2022-09-28T07:42:03.276Z,1.36
2022-09-28T07:43:03.704Z,1.36
2022-09-28T07:44:04.141Z,1.36
2022-09-28T07:45:04.563Z,1.37
2022-09-28T07:46:05.017Z,1.37
2022-09-28T07:47:05.420Z,1.40
2022-09-28T07:48:05.917Z,1.42
2022-09-28T07:49:09.736Z,1.38
2022-09-28T07:50:06.725Z,1.37
2022-09-28T07:51:07.163Z,1.36
2022-09-28T07:52:07.581Z,1.32
2022-09-28T07:53:08.017Z,1.27
2022-09-28T07:54:08.468Z,1.24
2022-09-28T07:55:08.908Z,1.22
2022-09-28T07:56:09.310Z,1.19
2022-09-28T07:57:09.759Z,1.18
2022-09-28T07:58:10.179Z,1.18
2022-09-28T07:59:10.720Z,1.20
2022-09-28T08:00:11.077Z,1.23
2022-09-28T08:01:11.534Z,1.26
2022-09-28T08:02:11.971Z,1.29
2022-09-28T08:03:12.341Z,1.28
2022-09-28T08:04:12.799Z,1.27
2022-09-28T08:05:13.215Z,1.25
2022-09-28T08:06:13.639Z,1.23
2022-09-28T08:07:14.074Z,1.22
2022-09-28T08:08:14.506Z,1.19
2022-09-28T08:09:14.967Z,1.16
2022-09-28T08:10:15.374Z,1.15
2022-09-28T08:11:15.811Z,1.13
2022-09-28T08:12:16.269Z,1.11
2022-09-28T08:13:16.685Z,1.09
2022-09-28T08:14:17.246Z,1.08
2022-09-28T08:15:17.557Z,1.07
2022-09-28T08:16:18.064Z,1.07
2022-09-28T08:17:18.414Z,1.08
2022-09-28T08:18:18.847Z,1.06
2022-09-28T08:19:19.498Z,1.03
2022-09-28T08:20:19.718Z,1.00
2022-09-28T08:21:20.154Z,0.98
2022-09-28T08:22:20.590Z,0.98
2022-09-28T08:23:21.026Z,0.98
2022-09-28T08:24:21.480Z,0.98
2022-09-28T08:25:21.900Z,0.99
2022-09-28T08:26:22.330Z,0.99
2022-09-28T08:27:22.766Z,0.98
2022-09-28T08:28:23.205Z,1.00
2022-09-28T08:29:23.667Z,1.01
2022-09-28T08:30:24.216Z,1.02
2022-09-28T08:31:24.509Z,1.04
2022-09-28T08:32:24.945Z,1.05
2022-09-28T08:33:25.383Z,1.05
2022-09-28T08:34:25.834Z,1.05
2022-09-28T08:35:26.254Z,1.04
2022-09-28T08:36:26.692Z,1.05
2022-09-28T08:37:27.123Z,1.05
2022-09-28T08:38:27.555Z,1.06
2022-09-28T08:39:28.021Z,1.07
2022-09-28T08:40:28.473Z,1.07
2022-09-28T08:41:28.870Z,1.07
2022-09-28T08:42:29.298Z,1.05
2022-09-28T08:43:29.731Z,1.03
2022-09-28T08:44:30.186Z,1.00
2022-09-28T08:45:30.602Z,0.99
2022-09-28T08:46:31.106Z,0.98
2022-09-28T08:47:31.472Z,0.97
2022-09-28T08:48:31.908Z,0.97
2022-09-28T08:49:32.630Z,0.96
2022-09-28T08:50:32.782Z,0.97
2022-09-28T08:51:33.211Z,0.98
2022-09-28T08:52:33.646Z,1.00
2022-09-28T08:53:34.081Z,1.02
2022-09-28T08:54:34.541Z,1.03
2022-09-28T08:55:34.952Z,1.03
2022-09-28T08:56:35.386Z,1.02
2022-09-28T08:57:35.822Z,1.00
2022-09-28T08:58:36.257Z,1.00
2022-09-28T08:59:36.721Z,1.00
2022-09-28T09:00:37.136Z,0.99
2022-09-28T09:01:37.587Z,0.98
2022-09-28T09:02:38.052Z,0.97
2022-09-28T09:03:38.439Z,0.95
2022-09-28T09:04:38.892Z,0.95
2022-09-28T09:05:39.307Z,0.95
2022-09-28T09:06:39.742Z,0.94
2022-09-28T09:07:40.180Z,0.91
2022-09-28T09:08:40.617Z,0.90
2022-09-28T09:09:41.079Z,0.88
2022-09-28T09:10:41.490Z,0.87
2022-09-28T09:11:41.925Z,0.88
2022-09-28T09:12:42.401Z,0.88
2022-09-28T09:13:42.799Z,0.89
2022-09-28T09:14:43.278Z,0.90
2022-09-28T09:15:43.675Z,0.92
2022-09-28T09:16:44.158Z,0.93
2022-09-28T09:17:44.543Z,0.94
2022-09-28T09:18:44.997Z,0.96
2022-09-28T09:19:45.425Z,0.96
2022-09-28T09:20:45.860Z,0.97
2022-09-28T09:21:46.293Z,0.96
2022-09-28T09:22:46.723Z,0.95
2022-09-28T09:23:47.164Z,0.94
2022-09-28T09:24:47.595Z,0.95
2022-09-28T09:25:48.058Z,0.95
2022-09-28T09:26:48.495Z,0.93
2022-09-28T09:27:48.904Z,0.95
2022-09-28T09:28:49.346Z,0.96
2022-09-28T09:29:49.779Z,0.96
2022-09-28T09:30:50.301Z,0.96
2022-09-28T09:31:50.655Z,0.97
2022-09-28T09:32:51.085Z,0.99
2022-09-28T09:33:51.535Z,0.97
2022-09-28T09:34:51.968Z,0.98
2022-09-28T09:35:52.419Z,0.97
2022-09-28T09:36:52.833Z,0.97
2022-09-28T09:37:56.532Z,0.97
2022-09-28T09:38:53.707Z,1.00
2022-09-28T09:39:54.143Z,1.01
2022-09-28T09:40:54.679Z,1.02
2022-09-28T09:41:55.016Z,1.03
2022-09-28T09:42:55.470Z,1.00
2022-09-28T09:43:55.891Z,0.99
2022-09-28T09:44:56.324Z,0.99
2022-09-28T09:45:56.844Z,1.02
2022-09-28T09:46:57.202Z,1.03
2022-09-28T09:47:57.636Z,1.03
2022-09-28T09:48:58.072Z,1.02
2022-09-28T09:49:58.507Z,1.00
2022-09-28T09:50:58.982Z,1.00
2022-09-28T09:51:59.388Z,1.00
2022-09-28T09:52:59.815Z,1.00
2022-09-28T09:54:00.282Z,0.99
2022-09-28T09:55:00.698Z,0.96
2022-09-28T09:56:01.146Z,0.95
2022-09-28T09:57:01.568Z,0.93
2022-09-28T09:58:02.019Z,0.88
2022-09-28T09:59:02.439Z,0.83
2022-09-28T10:00:02.878Z,0.81
2022-09-28T10:01:03.398Z,0.78
2022-09-28T10:02:03.807Z,0.77
2022-09-28T10:03:04.202Z,0.78
2022-09-28T10:04:04.642Z,0.80
2022-09-28T10:05:05.082Z,0.80
2022-09-28T10:06:05.551Z,0.82
2022-09-28T10:07:05.967Z,0.84
2022-09-28T10:08:06.426Z,0.82
2022-09-28T10:09:06.852Z,0.82
2022-09-28T10:10:07.376Z,0.84
2022-09-28T10:11:07.762Z,0.88
2022-09-28T10:12:08.180Z,0.90
2022-09-28T10:13:08.620Z,0.93
2022-09-28T10:14:09.063Z,0.98
2022-09-28T10:15:09.507Z,1.06
2022-09-28T10:16:09.981Z,1.08
2022-09-28T10:17:10.417Z,1.14
2022-09-28T10:18:10.826Z,1.15
2022-09-28T10:19:11.267Z,1.17
2022-09-28T10:20:11.704Z,1.15
2022-09-28T10:21:12.164Z,1.12
2022-09-28T10:22:12.589Z,1.12
2022-09-28T10:23:13.019Z,1.11
2022-09-28T10:24:13.458Z,1.07
2022-09-28T10:25:13.908Z,0.98
2022-09-28T10:26:14.356Z,0.96
2022-09-28T10:27:14.793Z,0.96
2022-09-28T10:28:15.215Z,0.93
2022-09-28T10:29:15.688Z,0.91
2022-09-28T10:30:16.099Z,0.88
2022-09-28T10:31:16.564Z,0.85
2022-09-28T10:32:16.979Z,0.83
2022-09-28T10:33:17.423Z,0.80
2022-09-28T10:34:17.983Z,0.78
2022-09-28T10:35:18.325Z,0.77
2022-09-28T10:36:18.788Z,0.78
2022-09-28T10:37:19.202Z,0.77
2022-09-28T10:38:19.672Z,0.78
2022-09-28T10:39:20.095Z,0.81
2022-09-28T10:40:20.595Z,0.85
2022-09-28T10:41:21.027Z,0.92
2022-09-28T10:42:21.429Z,0.97
2022-09-28T10:43:21.870Z,0.99
2022-09-28T10:44:22.316Z,0.98
2022-09-28T10:45:22.756Z,0.99
2022-09-28T10:46:23.269Z,1.01
2022-09-28T10:47:23.642Z,1.00
2022-09-28T10:48:24.089Z,0.97
2022-09-28T10:49:24.526Z,0.90
2022-09-28T10:50:24.973Z,0.84
2022-09-28T10:51:25.432Z,0.79
2022-09-28T10:52:25.861Z,0.76
2022-09-28T10:53:26.303Z,0.76
2022-09-28T10:54:26.755Z,0.78
2022-09-28T10:55:27.210Z,0.81
2022-09-28T10:56:27.666Z,0.84
2022-09-28T10:57:28.089Z,0.89
2022-09-28T10:58:28.540Z,0.98
2022-09-28T10:59:28.980Z,1.08
2022-09-28T11:00:29.423Z,1.17
2022-09-28T11:01:29.923Z,1.22
2022-09-28T11:02:34.764Z,1.23
2022-09-28T11:03:30.750Z,1.23
2022-09-28T11:04:31.192Z,1.25
2022-09-28T11:05:31.635Z,1.28
2022-09-28T11:06:32.091Z,1.29
2022-09-28T11:07:32.523Z,1.28
2022-09-28T11:08:32.980Z,1.29
2022-09-28T11:09:33.396Z,1.28
2022-09-28T11:10:33.833Z,1.25
2022-09-28T11:11:34.288Z,1.25
2022-09-28T11:12:34.709Z,1.24
2022-09-28T11:13:35.145Z,1.23
2022-09-28T11:14:39.737Z,1.23
2022-09-28T11:15:36.023Z,1.20
2022-09-28T11:16:36.547Z,1.19
2022-09-28T11:17:36.895Z,1.15
2022-09-28T11:18:37.334Z,1.09
2022-09-28T11:19:37.772Z,1.06
2022-09-28T11:20:38.293Z,1.08
2022-09-28T11:21:38.667Z,1.08
2022-09-28T11:22:39.085Z,1.11
2022-09-28T11:23:39.538Z,1.12
2022-09-28T11:24:39.972Z,1.13
2022-09-28T11:25:40.398Z,1.14
2022-09-28T11:26:40.856Z,1.15
2022-09-28T11:27:41.274Z,1.13
2022-09-28T11:28:41.722Z,1.11
2022-09-28T11:29:42.150Z,1.11
2022-09-28T11:30:42.681Z,1.10
2022-09-28T11:31:43.043Z,1.08
2022-09-28T11:32:43.468Z,1.08
2022-09-28T11:33:43.902Z,1.06
2022-09-28T11:34:58.592Z,1.05
2022-09-28T11:35:44.782Z,1.06
2022-09-28T11:36:45.237Z,1.10
2022-09-28T11:37:45.652Z,1.14
2022-09-28T11:38:46.092Z,1.17
2022-09-28T11:39:46.529Z,1.17
2022-09-28T11:40:47.017Z,1.16
2022-09-28T11:41:47.444Z,1.14
2022-09-28T11:42:47.845Z,1.12
2022-09-28T11:43:48.279Z,1.10
2022-09-28T11:44:48.723Z,1.05
2022-09-28T11:45:49.211Z,1.01
2022-09-28T11:46:49.618Z,1.00
2022-09-28T11:47:50.035Z,0.99
2022-09-28T11:48:50.479Z,0.99
2022-09-28T11:49:50.941Z,1.02
2022-09-28T11:50:51.358Z,1.03
2022-09-28T11:51:51.814Z,1.05
2022-09-28T11:52:52.230Z,1.07
2022-09-28T11:53:52.670Z,1.08
2022-09-28T11:54:53.112Z,1.07
2022-09-28T11:55:53.548Z,1.05
2022-09-28T11:56:54.008Z,1.04
2022-09-28T11:57:54.425Z,1.04
2022-09-28T11:58:54.863Z,1.05
2022-09-28T11:59:55.305Z,1.06
2022-09-28T12:00:55.749Z,1.07
2022-09-28T12:01:56.212Z,1.07
2022-09-28T12:02:56.682Z,1.07
2022-09-28T12:03:57.071Z,1.05
2022-09-28T12:04:57.503Z,1.03
2022-09-28T12:05:57.961Z,1.01
2022-09-28T12:06:58.410Z,0.99
2022-09-28T12:07:58.829Z,0.99
2022-09-28T12:08:59.269Z,0.98
2022-09-28T12:09:59.706Z,0.93
2022-09-28T12:11:00.159Z,0.91
2022-09-28T12:12:00.614Z,0.89
2022-09-28T12:13:01.039Z,0.87
2022-09-28T12:14:01.480Z,0.87
2022-09-28T12:15:01.928Z,0.90
2022-09-28T12:16:38.797Z,0.88
2022-09-28T12:17:07.918Z,0.86
2022-09-28T12:18:03.327Z,0.86
2022-09-28T12:19:03.709Z,0.87
2022-09-28T12:20:04.380Z,0.88
2022-09-28T12:21:05.330Z,0.90
2022-09-28T12:22:05.099Z,0.92
2022-09-28T12:23:05.499Z,0.92
2022-09-28T12:24:05.941Z,0.94
2022-09-28T12:25:06.384Z,0.95
2022-09-28T12:26:06.839Z,0.96
2022-09-28T12:27:07.296Z,0.95
2022-09-28T12:28:07.725Z,0.97
2022-09-28T12:29:08.169Z,0.97
2022-09-28T12:30:08.615Z,0.97
2022-09-28T12:31:09.094Z,0.96
2022-09-28T12:32:09.526Z,0.96
2022-09-28T12:33:09.950Z,0.98
2022-09-28T12:34:10.401Z,0.97
2022-09-28T12:35:10.837Z,0.94
2022-09-28T12:36:11.284Z,0.95
2022-09-28T12:37:11.752Z,0.96
2022-09-28T12:38:12.174Z,0.97
2022-09-28T12:39:27.463Z,0.94
2022-09-28T12:40:13.101Z,0.94
2022-09-28T12:41:13.510Z,0.91
2022-09-28T12:42:13.980Z,0.93
2022-09-28T12:43:14.396Z,0.93
2022-09-28T12:44:14.842Z,0.94
2022-09-28T12:45:15.283Z,0.98
2022-09-28T12:46:15.796Z,1.01
2022-09-28T12:47:16.191Z,1.05
2022-09-28T12:48:16.628Z,1.04
2022-09-28T12:51:17.946Z,1.08
2022-09-28T12:52:18.418Z,1.12
2022-09-28T12:53:18.831Z,1.15
2022-09-28T12:54:19.339Z,1.19
2022-09-28T12:55:19.722Z,1.19
2022-09-28T12:56:21.672Z,1.23
2022-09-28T12:57:20.644Z,1.25
2022-09-28T12:58:21.048Z,1.26
2022-09-28T12:59:21.493Z,1.26
2022-09-28T13:00:21.940Z,1.25
2022-09-28T13:01:22.453Z,1.24
2022-09-28T13:02:22.887Z,1.23
2022-09-28T13:03:23.268Z,1.23
2022-09-28T13:04:23.707Z,1.27
2022-09-28T13:05:24.145Z,1.26
2022-09-28T13:06:24.594Z,1.29
2022-09-28T13:07:25.044Z,1.31
2022-09-28T13:08:25.467Z,1.29
2022-09-28T13:09:25.910Z,1.31
2022-09-28T13:10:26.353Z,1.29
2022-09-28T13:11:26.795Z,1.25
2022-09-28T13:12:27.266Z,1.20
2022-09-28T13:13:27.677Z,1.18
2022-09-28T13:14:28.119Z,1.21
2022-09-28T13:15:28.718Z,1.22
2022-09-28T13:16:29.006Z,1.22
2022-09-28T13:17:29.472Z,1.18
2022-09-28T13:18:29.891Z,1.17
2022-09-28T13:19:30.334Z,1.15
2022-09-28T13:20:30.775Z,1.16
2022-09-28T13:21:31.216Z,1.17
2022-09-28T13:22:31.704Z,1.19
2022-09-28T13:23:32.103Z,1.22
2022-09-28T13:24:33.542Z,1.26
2022-09-28T13:25:32.986Z,1.25
2022-09-28T13:26:33.443Z,1.24